Time;durP1;ratioP1;P1;durP2;ratioP2;P2;SDS_P1;SDS_P2;PMS_P1;PMS_P2;Temp;Humidity;BMP_temperature;BMP_pressure;BME280_temperature;BME280_humidity;BME280_pressure;Samples;Min_cycle;Max_cycle;Signal;HPM_P1;HPM_P2
2023/03/12 00:01:20;;;;;;;11.57;5.57;;;;;;;;;;4953991;28;20447;-67
2023/03/12 00:03:47;;;;;;;11.98;5.93;;;;;;;;;;4958574;28;20093;-67
2023/03/12 00:06:13;;;;;;;18.73;6.15;;;;;;;;;;4957466;28;20043;-68
2023/03/12 00:08:40;;;;;;;16.63;7.38;;;;;;;;;;4954866;28;20047;-68
2023/03/12 00:11:07;;;;;;;12.73;5.68;;;;;;;;;;4956880;28;20513;-68
2023/03/12 00:13:33;;;;;;;13.50;5.95;;;;;;;;;;4960020;28;20123;-68
2023/03/12 00:16:05;;;;;;;11.05;5.10;;;;;;;;;;4958557;28;20478;-68
2023/03/12 00:18:31;;;;;;;18.58;7.05;;;;;;;;;;4957288;28;20063;-68
2023/03/12 00:20:57;;;;;;;13.77;7.57;;;;;;;;;;4955605;28;20047;-68
2023/03/12 00:23:23;;;;;;;17.70;7.10;;;;;;;;;;4954998;28;20050;-68
2023/03/12 00:25:49;;;;;;;17.58;7.22;;;;;;;;;;4955564;28;20449;-68
2023/03/12 00:28:15;;;;;;;12.70;5.95;;;;;;;;;;4958874;28;20253;-68
2023/03/12 00:30:42;;;;;;;14.63;6.28;;;;;;;;;;4956275;28;20046;-68
2023/03/12 00:33:09;;;;;;;12.43;5.78;;;;;;;;;;4955026;28;20513;-68
2023/03/12 00:35:37;;;;;;;13.73;6.30;;;;;;;;;;4958775;28;20499;-68
2023/03/12 00:38:03;;;;;;;13.05;6.13;;;;;;;;;;4957925;28;20039;-68
2023/03/12 00:40:29;;;;;;;16.52;6.22;;;;;;;;;;4955771;28;20047;-68
2023/03/12 00:42:55;;;;;;;14.02;6.00;;;;;;;;;;4959069;28;20043;-68
2023/03/12 00:45:21;;;;;;;10.65;5.72;;;;;;;;;;4961156;28;20110;-68
2023/03/12 00:47:48;;;;;;;12.80;5.43;;;;;;;;;;4963869;28;20055;-68
2023/03/12 00:50:14;;;;;;;16.70;5.75;;;;;;;;;;4961052;28;20141;-68
2023/03/12 00:52:40;;;;;;;11.05;5.65;;;;;;;;;;4958475;28;20068;-68
2023/03/12 00:55:06;;;;;;;13.52;6.38;;;;;;;;;;4941595;28;20057;-68
2023/03/12 00:57:32;;;;;;;11.30;6.38;;;;;;;;;;4960268;28;20068;-68
2023/03/12 00:59:59;;;;;;;12.68;6.80;;;;;;;;;;4945102;28;20047;-68
2023/03/12 01:02:25;;;;;;;12.38;5.88;;;;;;;;;;4959657;28;20435;-68
2023/03/12 01:04:51;;;;;;;11.38;5.88;;;;;;;;;;4958678;28;20050;-68
2023/03/12 01:07:17;;;;;;;13.48;5.53;;;;;;;;;;4961098;28;20042;-68
2023/03/12 01:09:43;;;;;;;10.05;6.32;;;;;;;;;;4962898;28;20040;-68
2023/03/12 01:12:09;;;;;;;13.98;5.70;;;;;;;;;;4945115;28;20095;-67
2023/03/12 01:14:35;;;;;;;10.43;5.43;;;;;;;;;;4960932;28;20663;-67
2023/03/12 01:17:02;;;;;;;12.65;5.35;;;;;;;;;;4959174;28;20477;-67
2023/03/12 01:19:28;;;;;;;20.95;6.50;;;;;;;;;;4958183;28;20069;-67
2023/03/12 01:21:54;;;;;;;12.27;5.53;;;;;;;;;;4942276;28;20389;-67
2023/03/12 01:24:20;;;;;;;9.55;6.30;;;;;;;;;;4958785;28;20498;-67
2023/03/12 01:26:46;;;;;;;17.25;6.30;;;;;;;;;;4962273;28;20406;-67
2023/03/12 01:29:12;;;;;;;15.70;6.00;;;;;;;;;;4942560;28;20258;-67
2023/03/12 01:31:38;;;;;;;9.75;5.53;;;;;;;;;;4959784;28;20074;-67
2023/03/12 01:34:06;;;;;;;12.50;6.65;;;;;;;;;;4959157;28;20061;-67
2023/03/12 01:36:32;;;;;;;17.75;7.18;;;;;;;;;;4944327;28;20109;-67
2023/03/12 01:38:59;;;;;;;14.43;6.60;;;;;;;;;;4962883;28;20054;-67
2023/03/12 01:41:26;;;;;;;14.52;6.85;;;;;;;;;;4960709;28;20584;-67
2023/03/12 01:43:52;;;;;;;10.57;6.95;;;;;;;;;;4958501;28;20042;-67
2023/03/12 01:46:18;;;;;;;20.73;6.82;;;;;;;;;;4959135;28;20078;-67
2023/03/12 01:48:48;;;;;;;13.95;7.30;;;;;;;;;;4961699;28;20050;-67
2023/03/12 01:51:15;;;;;;;15.75;7.72;;;;;;;;;;4958744;28;20645;-67
2023/03/12 01:53:44;;;;;;;18.55;7.13;;;;;;;;;;4958487;28;20410;-67
2023/03/12 01:56:11;;;;;;;12.40;5.60;;;;;;;;;;4943223;28;20053;-68
2023/03/12 01:58:38;;;;;;;16.25;5.82;;;;;;;;;;4940668;28;20051;-67
2023/03/12 02:01:05;;;;;;;15.20;6.10;;;;;;;;;;4957408;28;20047;-67
2023/03/12 02:03:31;;;;;;;13.68;6.22;;;;;;;;;;4959790;28;20418;-67
2023/03/12 02:06:01;;;;;;;16.67;6.43;;;;;;;;;;4942147;28;20043;-67
2023/03/12 02:08:28;;;;;;;9.93;5.25;;;;;;;;;;4947795;28;20050;-67
2023/03/12 02:10:54;;;;;;;10.02;5.03;;;;;;;;;;4955922;28;21217;-67
2023/03/12 02:13:20;;;;;;;13.93;5.57;;;;;;;;;;4956262;28;20608;-67
2023/03/12 02:15:46;;;;;;;10.75;5.38;;;;;;;;;;4940412;28;20047;-67
2023/03/12 02:18:14;;;;;;;9.35;5.30;;;;;;;;;;4958566;28;20185;-67
2023/03/12 02:20:41;;;;;;;16.55;6.10;;;;;;;;;;4940693;28;20043;-67
2023/03/12 02:23:13;;;;;;;16.85;6.25;;;;;;;;;;4958408;28;20065;-67
2023/03/12 02:25:40;;;;;;;17.25;5.60;;;;;;;;;;4938849;28;20121;-67
2023/03/12 02:28:08;;;;;;;11.68;5.70;;;;;;;;;;4954063;28;20043;-67
2023/03/12 02:30:35;;;;;;;13.13;5.60;;;;;;;;;;4959974;28;20082;-67
2023/03/12 02:33:04;;;;;;;16.25;6.22;;;;;;;;;;4927543;28;20046;-67
2023/03/12 02:35:30;;;;;;;18.65;6.40;;;;;;;;;;4959926;28;20063;-67
2023/03/12 02:37:56;;;;;;;12.70;5.32;;;;;;;;;;4959325;28;20116;-67
2023/03/12 02:43:47;;;;;;;13.98;5.60;;;;;;;;;;4965366;28;20225;-67
2023/03/12 02:46:13;;;;;;;13.77;5.88;;;;;;;;;;4954672;28;20125;-67
2023/03/12 02:48:40;;;;;;;16.92;6.85;;;;;;;;;;4974001;28;20051;-67
2023/03/12 02:51:06;;;;;;;11.30;5.10;;;;;;;;;;4971251;28;20055;-67
2023/03/12 02:53:32;;;;;;;16.75;6.05;;;;;;;;;;4971082;28;20110;-67
2023/03/12 02:55:58;;;;;;;12.15;5.35;;;;;;;;;;4971623;28;20066;-67
2023/03/12 02:58:24;;;;;;;13.25;5.28;;;;;;;;;;4972072;28;20558;-67
2023/03/12 03:00:51;;;;;;;15.52;4.65;;;;;;;;;;4955860;28;20139;-67
2023/03/12 03:03:17;;;;;;;10.75;5.10;;;;;;;;;;4973511;28;20097;-67
2023/03/12 03:05:43;;;;;;;8.75;4.18;;;;;;;;;;4969739;28;20050;-68
2023/03/12 03:08:09;;;;;;;10.65;4.65;;;;;;;;;;4953702;28;20040;-67
2023/03/12 03:10:35;;;;;;;10.63;4.70;;;;;;;;;;4973080;28;20042;-67
2023/03/12 03:13:01;;;;;;;13.07;4.50;;;;;;;;;;4939171;28;20634;-67
2023/03/12 03:15:28;;;;;;;17.45;4.55;;;;;;;;;;4970916;28;20034;-67
2023/03/12 03:17:54;;;;;;;16.17;5.50;;;;;;;;;;4971903;28;20510;-67
2023/03/12 03:20:21;;;;;;;11.75;5.03;;;;;;;;;;4968598;28;20047;-67
2023/03/12 03:22:47;;;;;;;11.07;4.45;;;;;;;;;;4972667;28;20046;-67
2023/03/12 03:25:14;;;;;;;12.27;5.22;;;;;;;;;;4970684;28;20054;-67
2023/03/12 03:27:40;;;;;;;12.85;4.57;;;;;;;;;;4970083;28;20494;-67
2023/03/12 03:30:07;;;;;;;12.48;4.15;;;;;;;;;;4967443;28;20577;-67
2023/03/12 03:32:33;;;;;;;9.35;4.43;;;;;;;;;;4969495;28;20497;-67
2023/03/12 03:34:59;;;;;;;14.80;4.35;;;;;;;;;;4972311;28;20038;-67
2023/03/12 03:37:25;;;;;;;10.57;4.57;;;;;;;;;;4972240;28;20049;-67
2023/03/12 03:39:52;;;;;;;10.25;4.40;;;;;;;;;;4972009;28;20041;-67
2023/03/12 03:42:18;;;;;;;9.25;4.40;;;;;;;;;;4970421;28;20093;-67
2023/03/12 03:44:44;;;;;;;10.07;4.10;;;;;;;;;;4971104;28;20105;-67
2023/03/12 03:47:10;;;;;;;11.50;3.70;;;;;;;;;;4971864;28;20051;-67
2023/03/12 03:49:36;;;;;;;10.80;4.30;;;;;;;;;;4962696;28;20042;-67
2023/03/12 03:52:02;;;;;;;8.63;4.03;;;;;;;;;;4972064;28;20063;-67
2023/03/12 03:54:29;;;;;;;8.80;3.95;;;;;;;;;;4970637;28;20078;-67
2023/03/12 03:56:56;;;;;;;6.90;3.70;;;;;;;;;;4972231;28;20051;-67
2023/03/12 03:59:22;;;;;;;11.07;3.60;;;;;;;;;;4970026;28;20046;-68
2023/03/12 04:01:48;;;;;;;15.15;5.30;;;;;;;;;;4970099;28;20092;-67
2023/03/12 04:04:14;;;;;;;7.82;3.28;;;;;;;;;;4971869;28;20039;-67
2023/03/12 04:06:40;;;;;;;9.20;3.47;;;;;;;;;;4971843;28;20054;-67
2023/03/12 04:09:06;;;;;;;12.45;3.92;;;;;;;;;;4969013;28;20043;-68
2023/03/12 04:11:32;;;;;;;9.75;3.53;;;;;;;;;;4972018;28;20385;-67
2023/03/12 04:13:58;;;;;;;8.65;3.72;;;;;;;;;;4971267;28;20490;-67
2023/03/12 04:16:24;;;;;;;16.05;4.10;;;;;;;;;;4973305;28;20038;-67
2023/03/12 04:18:51;;;;;;;10.23;3.67;;;;;;;;;;4974690;28;20046;-67
2023/03/12 04:21:17;;;;;;;9.98;3.75;;;;;;;;;;4957611;28;20051;-67
2023/03/12 04:23:43;;;;;;;8.18;3.50;;;;;;;;;;4957848;28;20398;-67
2023/03/12 04:26:09;;;;;;;11.57;3.72;;;;;;;;;;4976797;28;20121;-68
2023/03/12 04:28:36;;;;;;;8.18;3.22;;;;;;;;;;4972363;28;20098;-67
2023/03/12 04:31:03;;;;;;;7.35;3.75;;;;;;;;;;4954636;28;20514;-68
2023/03/12 04:33:30;;;;;;;11.23;3.35;;;;;;;;;;4969521;28;20463;-67
2023/03/12 04:35:56;;;;;;;12.15;3.90;;;;;;;;;;4973936;28;20137;-68
2023/03/12 04:38:24;;;;;;;8.93;3.75;;;;;;;;;;4974787;28;20035;-68
2023/03/12 04:41:04;;;;;;;9.10;4.78;;;;;;;;;;4970935;28;20070;-67
2023/03/12 04:43:30;;;;;;;11.25;3.67;;;;;;;;;;4973532;28;20141;-68
2023/03/12 04:45:57;;;;;;;12.75;3.78;;;;;;;;;;4976346;28;20097;-67
2023/03/12 04:48:23;;;;;;;9.77;3.67;;;;;;;;;;4973642;28;20050;-67
2023/03/12 04:50:49;;;;;;;12.90;4.10;;;;;;;;;;4960688;28;20066;-67
2023/03/12 04:53:16;;;;;;;11.52;3.75;;;;;;;;;;4974295;28;20125;-67
2023/03/12 04:55:42;;;;;;;10.45;3.50;;;;;;;;;;4974343;28;20046;-67
2023/03/12 04:58:08;;;;;;;7.43;3.58;;;;;;;;;;4972600;28;20059;-67
2023/03/12 05:00:34;;;;;;;8.50;3.80;;;;;;;;;;4973933;28;20053;-68
2023/03/12 05:03:00;;;;;;;9.30;3.78;;;;;;;;;;4970661;28;20055;-67
2023/03/12 05:05:26;;;;;;;12.35;4.03;;;;;;;;;;4974131;28;20065;-67
2023/03/12 05:07:53;;;;;;;10.88;4.25;;;;;;;;;;4971451;28;20078;-67
2023/03/12 05:10:19;;;;;;;10.02;3.70;;;;;;;;;;4972135;28;20047;-67
2023/03/12 05:12:45;;;;;;;11.73;3.53;;;;;;;;;;4975024;28;20073;-67
2023/03/12 05:15:11;;;;;;;11.63;4.13;;;;;;;;;;4972901;28;20039;-67
2023/03/12 05:17:37;;;;;;;10.55;4.55;;;;;;;;;;4970939;28;20489;-68
2023/03/12 05:20:05;;;;;;;11.90;3.53;;;;;;;;;;4973421;28;20043;-67
2023/03/12 05:22:31;;;;;;;10.45;3.70;;;;;;;;;;4974918;28;20054;-67
2023/03/12 05:24:57;;;;;;;9.60;3.97;;;;;;;;;;4972015;28;20034;-67
2023/03/12 05:27:24;;;;;;;11.15;4.55;;;;;;;;;;4972142;28;20525;-67
2023/03/12 05:29:51;;;;;;;11.65;4.20;;;;;;;;;;4972411;28;20043;-67
2023/03/12 05:32:17;;;;;;;10.52;3.95;;;;;;;;;;4971471;28;20077;-67
2023/03/12 05:34:43;;;;;;;15.35;4.07;;;;;;;;;;4971654;28;20120;-67
2023/03/12 05:37:10;;;;;;;7.97;3.92;;;;;;;;;;4973841;28;20061;-67
2023/03/12 05:39:36;;;;;;;9.05;3.95;;;;;;;;;;4972048;28;20043;-67
2023/03/12 05:42:03;;;;;;;9.77;3.80;;;;;;;;;;4974404;28;20054;-67
2023/03/12 05:44:29;;;;;;;13.02;4.18;;;;;;;;;;4969492;28;20048;-67
2023/03/12 05:46:55;;;;;;;7.78;3.60;;;;;;;;;;4973252;28;20119;-67
2023/03/12 05:49:22;;;;;;;8.45;3.90;;;;;;;;;;4973266;28;20043;-67
2023/03/12 05:51:49;;;;;;;10.98;3.40;;;;;;;;;;4972918;28;20062;-67
2023/03/12 05:54:15;;;;;;;8.73;3.95;;;;;;;;;;4956311;28;20051;-67
2023/03/12 05:56:42;;;;;;;7.30;3.85;;;;;;;;;;4974319;28;20156;-67
2023/03/12 05:59:09;;;;;;;8.95;3.92;;;;;;;;;;4972446;28;20043;-67
2023/03/12 06:01:36;;;;;;;9.95;4.03;;;;;;;;;;4972654;28;20057;-67
2023/03/12 06:04:02;;;;;;;11.23;3.85;;;;;;;;;;4972033;28;20051;-67
2023/03/12 06:06:32;;;;;;;9.77;3.85;;;;;;;;;;4974114;28;20516;-67
2023/03/12 06:08:58;;;;;;;11.65;4.18;;;;;;;;;;4952841;28;20055;-67
2023/03/12 06:11:24;;;;;;;11.88;5.03;;;;;;;;;;4973732;28;20125;-67
2023/03/12 06:13:50;;;;;;;7.57;3.60;;;;;;;;;;4951391;28;20138;-67
2023/03/12 06:16:24;;;;;;;12.70;4.00;;;;;;;;;;4968629;28;20043;-67
2023/03/12 06:18:54;;;;;;;9.65;3.58;;;;;;;;;;4974393;28;20042;-67
2023/03/12 06:21:23;;;;;;;10.18;4.13;;;;;;;;;;4970996;28;20130;-67
2023/03/12 06:23:50;;;;;;;7.10;3.70;;;;;;;;;;4973319;28;20122;-67
2023/03/12 06:26:17;;;;;;;8.30;3.97;;;;;;;;;;4967076;28;20390;-68
2023/03/12 06:28:45;;;;;;;12.25;3.95;;;;;;;;;;4972555;28;20046;-81
2023/03/12 06:31:11;;;;;;;9.07;3.83;;;;;;;;;;4971279;28;20043;-67
2023/03/12 06:33:38;;;;;;;7.93;4.07;;;;;;;;;;4973117;28;20130;-67
2023/03/12 06:36:05;;;;;;;13.18;4.43;;;;;;;;;;4973925;28;20070;-67
2023/03/12 06:38:32;;;;;;;12.57;4.10;;;;;;;;;;4970884;28;20150;-67
2023/03/12 06:40:59;;;;;;;8.50;4.43;;;;;;;;;;4971013;28;20145;-67
2023/03/12 06:43:27;;;;;;;7.63;4.30;;;;;;;;;;4955009;28;20047;-67
2023/03/12 06:45:54;;;;;;;9.07;4.85;;;;;;;;;;4954356;28;20069;-67
2023/03/12 06:48:20;;;;;;;16.48;4.85;;;;;;;;;;4973761;28;20046;-72
2023/03/12 06:50:46;;;;;;;15.02;4.93;;;;;;;;;;4970784;28;20592;-66
2023/03/12 06:53:12;;;;;;;12.57;5.18;;;;;;;;;;4973288;28;20055;-68
2023/03/12 06:55:38;;;;;;;16.25;5.40;;;;;;;;;;4954777;28;20050;-68
2023/03/12 06:58:05;;;;;;;10.35;5.60;;;;;;;;;;4974106;28;20200;-69
2023/03/12 07:00:31;;;;;;;11.13;4.70;;;;;;;;;;4951845;28;20526;-69
2023/03/12 07:02:58;;;;;;;19.42;6.32;;;;;;;;;;4962086;28;20050;-69
2023/03/12 07:05:24;;;;;;;20.50;6.05;;;;;;;;;;4969597;28;20383;-67
2023/03/12 07:07:51;;;;;;;19.40;6.47;;;;;;;;;;4974940;28;20062;-68
2023/03/12 07:10:17;;;;;;;10.55;6.05;;;;;;;;;;4973165;28;20031;-68
2023/03/12 07:12:43;;;;;;;13.57;6.47;;;;;;;;;;4969589;28;20090;-68
2023/03/12 07:15:09;;;;;;;12.90;6.57;;;;;;;;;;4971633;28;20042;-68
2023/03/12 07:17:36;;;;;;;17.85;7.63;;;;;;;;;;4955615;28;20054;-68
2023/03/12 07:20:02;;;;;;;16.27;7.22;;;;;;;;;;4973445;28;20170;-68
2023/03/12 07:22:28;;;;;;;12.52;7.28;;;;;;;;;;4972203;28;20061;-73
2023/03/12 07:24:54;;;;;;;12.57;7.90;;;;;;;;;;4971194;28;20045;-68
2023/03/12 07:27:20;;;;;;;16.67;7.55;;;;;;;;;;4973601;28;20038;-68
2023/03/12 07:29:47;;;;;;;15.60;8.07;;;;;;;;;;4972065;28;20047;-68
2023/03/12 07:32:13;;;;;;;17.48;9.23;;;;;;;;;;4972719;28;20592;-68
2023/03/12 07:34:39;;;;;;;16.25;8.60;;;;;;;;;;4969103;28;20068;-68
2023/03/12 07:37:05;;;;;;;19.75;9.18;;;;;;;;;;4970252;28;20581;-68
2023/03/12 07:39:31;;;;;;;25.73;9.65;;;;;;;;;;4980485;28;20415;-68
2023/03/12 07:41:57;;;;;;;17.50;8.25;;;;;;;;;;4973221;28;20081;-68
2023/03/12 07:44:25;;;;;;;24.30;9.85;;;;;;;;;;4971143;28;20042;-68
2023/03/12 07:46:51;;;;;;;15.77;9.57;;;;;;;;;;4950534;28;20058;-68
2023/03/12 07:49:17;;;;;;;20.08;8.57;;;;;;;;;;4970667;28;20070;-68
2023/03/12 07:51:43;;;;;;;20.58;9.43;;;;;;;;;;4972381;28;20113;-68
2023/03/12 07:54:09;;;;;;;14.48;8.93;;;;;;;;;;4968984;28;20097;-68
2023/03/12 07:56:36;;;;;;;18.77;9.63;;;;;;;;;;4972429;28;20097;-68
2023/03/12 07:59:02;;;;;;;18.70;8.95;;;;;;;;;;4972368;28;20043;-67
2023/03/12 08:01:30;;;;;;;20.95;10.35;;;;;;;;;;4972960;28;20053;-67
2023/03/12 08:04:01;;;;;;;21.95;9.45;;;;;;;;;;4969706;28;20050;-67
2023/03/12 08:06:28;;;;;;;23.90;10.00;;;;;;;;;;4968717;28;20501;-68
2023/03/12 08:08:54;;;;;;;20.33;9.55;;;;;;;;;;4955979;28;20043;-68
2023/03/12 08:11:20;;;;;;;21.08;10.43;;;;;;;;;;4972024;28;20039;-67
2023/03/12 08:13:47;;;;;;;22.30;9.13;;;;;;;;;;4970478;28;20131;-68
2023/03/12 08:16:13;;;;;;;17.08;10.13;;;;;;;;;;4971072;28;20043;-66
2023/03/12 08:18:41;;;;;;;18.90;10.38;;;;;;;;;;4971296;28;20046;-63
2023/03/12 08:21:08;;;;;;;20.60;10.23;;;;;;;;;;4954172;28;20102;-66
2023/03/12 08:23:34;;;;;;;18.55;10.50;;;;;;;;;;4970864;28;20458;-66
2023/03/12 08:26:00;;;;;;;19.70;11.02;;;;;;;;;;4970545;28;20081;-62
2023/03/12 08:28:26;;;;;;;20.90;11.35;;;;;;;;;;4972323;28;20043;-62
2023/03/12 08:30:54;;;;;;;21.33;11.57;;;;;;;;;;4970572;28;20443;-64
2023/03/12 08:33:20;;;;;;;22.92;11.43;;;;;;;;;;4970146;28;20042;-63
2023/03/12 08:35:46;;;;;;;24.55;12.73;;;;;;;;;;4971858;28;20039;-67
2023/03/12 08:38:13;;;;;;;21.02;12.98;;;;;;;;;;4952525;28;20075;-68
2023/03/12 08:40:39;;;;;;;23.48;12.85;;;;;;;;;;4967576;28;20083;-68
2023/03/12 08:51:20;;;;;;;29.00;15.55;;;;;;;;;;4939110;28;20071;-67
2023/03/12 08:53:47;;;;;;;23.92;14.52;;;;;;;;;;4931319;29;20059;-65
2023/03/12 08:56:13;;;;;;;27.25;16.13;;;;;;;;;;4916352;29;20039;-68
2023/03/12 08:58:39;;;;;;;30.83;16.15;;;;;;;;;;4933071;29;20436;-72
2023/03/12 09:01:10;;;;;;;24.75;15.95;;;;;;;;;;4950340;28;20050;-71
2023/03/12 09:03:36;;;;;;;30.20;16.83;;;;;;;;;;4934485;29;20099;-67
2023/03/12 09:06:04;;;;;;;35.42;18.40;;;;;;;;;;4936233;29;20047;-68
2023/03/12 09:08:32;;;;;;;31.80;17.10;;;;;;;;;;4936039;29;20061;-65
2023/03/12 09:11:00;;;;;;;32.38;17.35;;;;;;;;;;4951415;28;20463;-66
2023/03/12 09:13:27;;;;;;;33.63;17.10;;;;;;;;;;4953364;29;20118;-66
2023/03/12 09:15:57;;;;;;;35.17;17.35;;;;;;;;;;4934445;29;20043;-65
2023/03/12 09:18:23;;;;;;;29.20;17.35;;;;;;;;;;4951506;29;20054;-66
2023/03/12 09:20:49;;;;;;;31.85;17.27;;;;;;;;;;4948318;28;20047;-70
2023/03/12 09:23:16;;;;;;;34.58;18.13;;;;;;;;;;4948580;29;20109;-72
2023/03/12 09:25:45;;;;;;;26.33;16.77;;;;;;;;;;4953424;29;20059;-71
2023/03/12 09:28:11;;;;;;;28.13;17.55;;;;;;;;;;4953454;29;20064;-72
2023/03/12 09:30:38;;;;;;;42.13;18.05;;;;;;;;;;4933586;29;20051;-72
2023/03/12 09:33:04;;;;;;;30.48;19.00;;;;;;;;;;4949338;29;20506;-72
2023/03/12 09:35:30;;;;;;;29.85;17.92;;;;;;;;;;4953852;29;20130;-72
2023/03/12 09:37:57;;;;;;;31.83;19.20;;;;;;;;;;4934105;29;20047;-71
2023/03/12 09:40:25;;;;;;;37.22;20.25;;;;;;;;;;4950990;29;20119;-71
2023/03/12 09:42:51;;;;;;;33.65;18.13;;;;;;;;;;4933545;29;20039;-72
2023/03/12 09:45:21;;;;;;;32.72;17.95;;;;;;;;;;4932895;29;20119;-71
2023/03/12 09:47:50;;;;;;;30.50;18.52;;;;;;;;;;4934288;29;20051;-76
2023/03/12 09:50:21;;;;;;;32.60;19.25;;;;;;;;;;4951075;29;20050;-66
2023/03/12 09:52:50;;;;;;;31.63;18.85;;;;;;;;;;4949212;29;20095;-67
2023/03/12 09:55:18;;;;;;;33.35;18.60;;;;;;;;;;4952308;29;20039;-66
2023/03/12 09:57:45;;;;;;;38.03;20.85;;;;;;;;;;4952665;29;20039;-66
2023/03/12 10:00:15;;;;;;;32.50;19.48;;;;;;;;;;4950857;29;20070;-66
2023/03/12 10:02:46;;;;;;;33.60;19.10;;;;;;;;;;4933278;29;20059;-66
2023/03/12 10:05:20;;;;;;;34.50;19.63;;;;;;;;;;4944820;29;20059;-66
2023/03/12 10:07:52;;;;;;;35.55;19.83;;;;;;;;;;4949814;29;20055;-66
2023/03/12 10:10:25;;;;;;;29.67;18.42;;;;;;;;;;4952337;29;20129;-67
2023/03/12 10:13:00;;;;;;;31.87;18.77;;;;;;;;;;4934206;29;20062;-67
2023/03/12 10:15:48;;;;;;;34.97;18.15;;;;;;;;;;4951463;29;20270;-67
2023/03/12 10:18:27;;;;;;;32.03;17.80;;;;;;;;;;4952503;29;20051;-67
2023/03/12 10:21:01;;;;;;;36.58;19.52;;;;;;;;;;4949524;29;20058;-85
2023/03/12 10:23:38;;;;;;;30.02;19.83;;;;;;;;;;4948700;29;20396;-80
2023/03/12 10:26:09;;;;;;;36.42;19.45;;;;;;;;;;4951648;29;20387;-69
2023/03/12 10:28:37;;;;;;;37.47;19.17;;;;;;;;;;4945147;29;20047;-79
2023/03/12 10:31:05;;;;;;;38.75;22.65;;;;;;;;;;4947858;29;20090;-83
2023/03/12 10:33:39;;;;;;;37.53;20.52;;;;;;;;;;4931311;29;20113;-72
2023/03/12 10:36:12;;;;;;;33.63;20.90;;;;;;;;;;4949119;29;20051;-81
2023/03/12 10:38:38;;;;;;;37.78;19.20;;;;;;;;;;4929099;29;20376;-80
2023/03/12 10:41:15;;;;;;;38.40;20.02;;;;;;;;;;4910995;29;20043;-79
2023/03/12 10:43:41;;;;;;;38.70;22.02;;;;;;;;;;4945680;29;20059;-80
2023/03/12 10:46:14;;;;;;;39.10;21.38;;;;;;;;;;4928624;29;20118;-81
2023/03/12 10:48:40;;;;;;;39.90;20.35;;;;;;;;;;4944286;29;20078;-81
2023/03/12 10:51:08;;;;;;;41.92;23.08;;;;;;;;;;4914384;29;20059;-79
2023/03/12 10:53:35;;;;;;;42.53;23.60;;;;;;;;;;4908431;29;20094;-78
2023/03/12 10:56:03;;;;;;;51.20;24.67;;;;;;;;;;4907751;29;20454;-79
2023/03/12 10:58:32;;;;;;;44.35;23.88;;;;;;;;;;4910304;29;20507;-79
2023/03/12 11:01:00;;;;;;;46.40;24.42;;;;;;;;;;4910404;29;20491;-78
2023/03/12 11:03:26;;;;;;;56.30;26.58;;;;;;;;;;4908309;29;20060;-80
2023/03/12 11:05:54;;;;;;;62.58;27.88;;;;;;;;;;4924861;29;20451;-79
2023/03/12 11:08:20;;;;;;;57.65;29.95;;;;;;;;;;4911495;29;20451;-80
2023/03/12 11:10:47;;;;;;;66.28;28.75;;;;;;;;;;4905033;29;20040;-79
2023/03/12 11:13:22;;;;;;;68.13;30.35;;;;;;;;;;4908973;29;20086;-80
2023/03/12 11:15:50;;;;;;;75.85;32.03;;;;;;;;;;4921771;29;20573;-78
2023/03/12 11:18:16;;;;;;;72.63;31.70;;;;;;;;;;4919325;29;20059;-79
2023/03/12 11:20:42;;;;;;;71.90;31.63;;;;;;;;;;4906578;29;20047;-77
2023/03/12 11:23:17;;;;;;;65.65;32.05;;;;;;;;;;4928211;29;20047;-80
2023/03/12 11:25:43;;;;;;;70.43;33.05;;;;;;;;;;4912050;29;20051;-83
2023/03/12 11:28:16;;;;;;;75.93;31.83;;;;;;;;;;4912149;29;20061;-77
2023/03/12 11:30:44;;;;;;;74.30;32.85;;;;;;;;;;4909416;29;20051;-77
2023/03/12 11:33:11;;;;;;;72.15;33.08;;;;;;;;;;4939330;29;20044;-77
2023/03/12 11:35:56;;;;;;;87.70;33.65;;;;;;;;;;4931985;29;20040;-69
2023/03/12 11:38:38;;;;;;;85.60;34.20;;;;;;;;;;4926412;29;21341;-65
2023/03/12 11:41:10;;;;;;;93.22;35.45;;;;;;;;;;4908153;29;20047;-70
2023/03/12 11:43:40;;;;;;;84.75;33.10;;;;;;;;;;4925255;29;20051;-72
2023/03/12 11:46:12;;;;;;;84.47;33.92;;;;;;;;;;4908855;29;20078;-65
2023/03/12 11:48:47;;;;;;;77.97;33.78;;;;;;;;;;4926329;29;20659;-65
2023/03/12 11:51:21;;;;;;;106.03;37.10;;;;;;;;;;4940079;29;20487;-65
2023/03/12 11:53:56;;;;;;;96.28;35.88;;;;;;;;;;4947960;29;20050;-72
2023/03/12 11:56:41;;;;;;;98.90;36.90;;;;;;;;;;4946076;29;20107;-67
2023/03/12 11:59:13;;;;;;;79.78;31.60;;;;;;;;;;4944407;29;20174;-67
2023/03/12 12:01:56;;;;;;;90.78;33.97;;;;;;;;;;4945720;29;20502;-66
2023/03/12 12:04:41;;;;;;;98.25;36.08;;;;;;;;;;4927425;29;20043;-74
2023/03/12 12:07:07;;;;;;;87.85;32.53;;;;;;;;;;4928825;29;20181;-69
2023/03/12 12:09:40;;;;;;;85.78;32.15;;;;;;;;;;4928609;29;20051;-70
2023/03/12 12:12:06;;;;;;;94.93;33.55;;;;;;;;;;4946055;29;20105;-70
2023/03/12 12:14:42;;;;;;;78.25;30.92;;;;;;;;;;4942915;29;20063;-69
2023/03/12 12:17:25;;;;;;;90.00;33.60;;;;;;;;;;4938078;29;20390;-70
2023/03/12 12:19:57;;;;;;;93.57;31.83;;;;;;;;;;4942149;28;20134;-68
2023/03/12 12:22:43;;;;;;;95.53;30.77;;;;;;;;;;4932573;29;20118;-68
2023/03/12 12:25:28;;;;;;;94.57;31.10;;;;;;;;;;4949507;29;20044;-68
2023/03/12 12:28:00;;;;;;;78.70;27.25;;;;;;;;;;4946377;29;20130;-68
2023/03/12 12:30:44;;;;;;;69.05;21.25;;;;;;;;;;4947460;29;20468;-68
2023/03/12 12:33:16;;;;;;;68.03;21.95;;;;;;;;;;4909864;29;20055;-66
2023/03/12 12:35:43;;;;;;;68.93;21.65;;;;;;;;;;4928330;29;20116;-79
2023/03/12 12:38:10;;;;;;;68.35;19.48;;;;;;;;;;4916275;29;21002;-72
2023/03/12 12:40:38;;;;;;;65.90;19.45;;;;;;;;;;4949119;29;20467;-73
2023/03/12 12:43:23;;;;;;;65.15;18.02;;;;;;;;;;4931636;29;20051;-68
2023/03/12 12:45:51;;;;;;;61.15;16.42;;;;;;;;;;4932213;29;20047;-70
2023/03/12 12:48:20;;;;;;;63.15;16.92;;;;;;;;;;4949940;29;20039;-69
2023/03/12 12:50:47;;;;;;;60.60;15.15;;;;;;;;;;4942078;28;20505;-69
2023/03/12 12:53:16;;;;;;;42.80;11.75;;;;;;;;;;4932266;29;20353;-69
2023/03/12 12:55:54;;;;;;;47.40;13.02;;;;;;;;;;4931438;29;20047;-67
2023/03/12 12:58:24;;;;;;;57.88;13.20;;;;;;;;;;4949964;29;20043;-67
2023/03/12 13:01:09;;;;;;;37.83;11.48;;;;;;;;;;4947772;29;20050;-67
2023/03/12 13:03:37;;;;;;;44.65;11.65;;;;;;;;;;4947374;29;20102;-75
2023/03/12 13:06:04;;;;;;;41.28;9.57;;;;;;;;;;4948649;29;20043;-67
2023/03/12 13:08:33;;;;;;;38.90;9.65;;;;;;;;;;4932692;29;20435;-64
2023/03/12 13:11:03;;;;;;;37.83;8.80;;;;;;;;;;4948663;29;20043;-64
2023/03/12 13:13:29;;;;;;;50.33;10.35;;;;;;;;;;4948514;29;20046;-62
2023/03/12 13:16:14;;;;;;;44.25;9.70;;;;;;;;;;4948458;29;20076;-61
2023/03/12 13:18:40;;;;;;;46.15;8.82;;;;;;;;;;4943778;28;20122;-62
2023/03/12 13:21:12;;;;;;;53.38;8.60;;;;;;;;;;4947203;29;20082;-61
2023/03/12 13:23:45;;;;;;;35.10;8.63;;;;;;;;;;4948510;29;20577;-62
2023/03/12 13:26:11;;;;;;;38.90;7.85;;;;;;;;;;4951110;29;20043;-62
2023/03/12 13:28:56;;;;;;;43.53;8.02;;;;;;;;;;4932096;29;20139;-63
2023/03/12 13:31:23;;;;;;;34.75;6.25;;;;;;;;;;4947100;29;20043;-68
2023/03/12 13:33:52;;;;;;;36.97;8.07;;;;;;;;;;4934237;29;20170;-62
2023/03/12 13:36:22;;;;;;;38.20;7.57;;;;;;;;;;4947827;29;20039;-62
2023/03/12 13:38:58;;;;;;;36.55;6.65;;;;;;;;;;4948737;29;20055;-63
2023/03/12 13:41:34;;;;;;;29.10;6.10;;;;;;;;;;4949037;29;20564;-63
2023/03/12 13:44:20;;;;;;;39.05;7.28;;;;;;;;;;4931728;29;20113;-63
2023/03/12 13:46:47;;;;;;;39.80;7.80;;;;;;;;;;4947711;29;20399;-63
2023/03/12 13:49:14;;;;;;;36.25;7.15;;;;;;;;;;4948128;28;20035;-62
2023/03/12 13:51:55;;;;;;;44.13;7.28;;;;;;;;;;4930364;29;20044;-63
2023/03/12 13:54:25;;;;;;;35.65;7.20;;;;;;;;;;4925628;29;20081;-64
2023/03/12 13:57:09;;;;;;;43.20;7.72;;;;;;;;;;4925877;29;20040;-63
2023/03/12 13:59:40;;;;;;;44.78;8.05;;;;;;;;;;4927767;29;20047;-63
2023/03/12 14:02:21;;;;;;;39.03;7.75;;;;;;;;;;4929113;29;20444;-63
2023/03/12 14:04:47;;;;;;;41.35;8.70;;;;;;;;;;4927438;29;20496;-63
2023/03/12 14:07:26;;;;;;;42.40;8.02;;;;;;;;;;4926079;29;20047;-63
2023/03/12 14:10:03;;;;;;;48.92;8.02;;;;;;;;;;4912463;29;20456;-63
2023/03/12 14:12:37;;;;;;;44.05;8.40;;;;;;;;;;4927719;29;20103;-64
2023/03/12 14:15:08;;;;;;;42.65;7.80;;;;;;;;;;4912256;29;20051;-63
2023/03/12 14:17:34;;;;;;;35.85;7.05;;;;;;;;;;4910818;29;20083;-64
2023/03/12 14:20:01;;;;;;;37.10;6.50;;;;;;;;;;4927974;29;20051;-64
2023/03/12 14:22:31;;;;;;;40.13;7.18;;;;;;;;;;4928284;29;20487;-63
2023/03/12 14:25:00;;;;;;;35.65;6.95;;;;;;;;;;4930058;29;20039;-64
2023/03/12 14:27:29;;;;;;;38.75;6.97;;;;;;;;;;4927092;29;20122;-63
2023/03/12 14:29:57;;;;;;;36.25;6.72;;;;;;;;;;4927666;29;20052;-64
2023/03/12 14:32:25;;;;;;;38.85;6.60;;;;;;;;;;4928642;29;20396;-64
2023/03/12 14:34:57;;;;;;;48.05;7.97;;;;;;;;;;4929054;29;20054;-63
2023/03/12 14:37:27;;;;;;;40.00;7.18;;;;;;;;;;4930280;29;20048;-63
2023/03/12 14:39:56;;;;;;;43.47;7.63;;;;;;;;;;4928685;29;20496;-62
2023/03/12 14:42:25;;;;;;;37.85;7.65;;;;;;;;;;4925433;29;20122;-63
2023/03/12 14:44:59;;;;;;;43.72;9.73;;;;;;;;;;4929139;29;20051;-63